Time;durP1;ratioP1;P1;durP2;ratioP2;P2;SDS_P1;SDS_P2;PMS_P1;PMS_P2;Temp;Humidity;BMP_temperature;BMP_pressure;BME280_temperature;BME280_humidity;BME280_pressure;Samples;Min_cycle;Max_cycle;Signal;HPM_P1;HPM_P2
2022/08/07 00:01:01;;;;;;;9.15;6.03;;;;;;;;;;5074549;28;20400;-72
2022/08/07 00:03:27;;;;;;;6.75;5.10;;;;;;;;;;5057167;28;20032;-72
2022/08/07 00:05:54;;;;;;;6.57;4.78;;;;;;;;;;5057486;28;20043;-72
2022/08/07 00:08:23;;;;;;;7.13;4.95;;;;;;;;;;5091348;28;20038;-72
2022/08/07 00:10:49;;;;;;;8.63;6.05;;;;;;;;;;5073923;28;20044;-72
2022/08/07 00:13:16;;;;;;;9.13;5.90;;;;;;;;;;5073621;28;20107;-72
2022/08/07 00:15:42;;;;;;;9.05;6.18;;;;;;;;;;5074473;28;20051;-72
2022/08/07 00:18:08;;;;;;;11.75;6.50;;;;;;;;;;5057198;28;20079;-72
2022/08/07 00:20:35;;;;;;;8.93;6.00;;;;;;;;;;5073949;28;20488;-72
2022/08/07 00:23:01;;;;;;;12.15;6.47;;;;;;;;;;5082813;28;20040;-72
2022/08/07 00:25:28;;;;;;;9.07;5.93;;;;;;;;;;5087270;28;20051;-72
2022/08/07 00:27:54;;;;;;;10.65;6.53;;;;;;;;;;5074999;28;20035;-72
2022/08/07 00:30:20;;;;;;;10.30;6.68;;;;;;;;;;5073388;28;20051;-72
2022/08/07 00:32:48;;;;;;;9.50;6.68;;;;;;;;;;5073882;28;20043;-73
2022/08/07 00:35:14;;;;;;;9.15;5.80;;;;;;;;;;5074421;28;20048;-72
2022/08/07 00:37:40;;;;;;;9.07;5.80;;;;;;;;;;5091973;28;20036;-72
2022/08/07 00:40:06;;;;;;;8.55;5.97;;;;;;;;;;5092187;28;20036;-73
2022/08/07 00:42:33;;;;;;;9.18;6.65;;;;;;;;;;5073635;28;20044;-73
2022/08/07 00:44:59;;;;;;;9.65;6.75;;;;;;;;;;5092228;28;20032;-73
2022/08/07 00:47:25;;;;;;;10.60;6.85;;;;;;;;;;5091679;28;20040;-72
2022/08/07 00:49:51;;;;;;;9.43;7.10;;;;;;;;;;5091874;28;20070;-72
2022/08/07 00:52:17;;;;;;;12.18;7.57;;;;;;;;;;5076806;28;20033;-72
2022/08/07 00:54:44;;;;;;;13.45;7.50;;;;;;;;;;5062378;28;20037;-72
2022/08/07 00:57:10;;;;;;;10.20;6.88;;;;;;;;;;5057091;28;20036;-72
2022/08/07 00:59:37;;;;;;;9.43;6.15;;;;;;;;;;5059363;28;20040;-72
2022/08/07 01:02:04;;;;;;;9.80;6.93;;;;;;;;;;5059952;28;20757;-72
2022/08/07 01:04:30;;;;;;;10.85;7.38;;;;;;;;;;5073072;28;20141;-72
2022/08/07 01:06:56;;;;;;;13.18;8.55;;;;;;;;;;5073485;28;20067;-72
2022/08/07 01:09:22;;;;;;;11.25;7.40;;;;;;;;;;5064156;28;20044;-72
2022/08/07 01:11:50;;;;;;;9.93;6.63;;;;;;;;;;5087237;28;20481;-72
2022/08/07 01:14:16;;;;;;;9.10;5.97;;;;;;;;;;5073828;28;20044;-72
2022/08/07 01:16:43;;;;;;;11.38;6.32;;;;;;;;;;5091715;28;20098;-72
2022/08/07 01:19:09;;;;;;;11.07;6.43;;;;;;;;;;5073666;28;20054;-72
2022/08/07 01:21:35;;;;;;;10.70;6.38;;;;;;;;;;5076290;28;20376;-72
2022/08/07 01:24:01;;;;;;;13.25;7.15;;;;;;;;;;5095374;28;20044;-72
2022/08/07 01:26:28;;;;;;;9.25;6.45;;;;;;;;;;5085876;28;20044;-72
2022/08/07 01:28:54;;;;;;;9.98;6.43;;;;;;;;;;5074809;28;20040;-72
2022/08/07 01:31:26;;;;;;;10.77;6.57;;;;;;;;;;5077247;28;20047;-72
2022/08/07 01:33:53;;;;;;;11.02;6.43;;;;;;;;;;5077105;28;20396;-72
2022/08/07 01:36:19;;;;;;;11.35;7.45;;;;;;;;;;5076970;28;20071;-72
2022/08/07 01:38:45;;;;;;;12.27;6.78;;;;;;;;;;5094703;28;20044;-73
2022/08/07 01:41:12;;;;;;;9.40;5.82;;;;;;;;;;5060480;28;20472;-72
2022/08/07 01:43:38;;;;;;;11.00;6.80;;;;;;;;;;5094491;28;20113;-72
2022/08/07 01:46:04;;;;;;;9.93;7.10;;;;;;;;;;5077011;28;20043;-73
2022/08/07 01:48:31;;;;;;;14.15;7.00;;;;;;;;;;5094636;28;20040;-72
2022/08/07 01:51:02;;;;;;;12.30;7.18;;;;;;;;;;5076341;28;20040;-72
2022/08/07 01:53:29;;;;;;;12.02;6.60;;;;;;;;;;5094790;28;20443;-72
2022/08/07 01:55:56;;;;;;;12.98;7.70;;;;;;;;;;5094985;28;20370;-72
2022/08/07 01:58:22;;;;;;;12.10;7.35;;;;;;;;;;5095007;28;20032;-72
2022/08/07 02:00:52;;;;;;;13.60;7.00;;;;;;;;;;5085999;28;20051;-72
2022/08/07 02:03:20;;;;;;;10.80;7.32;;;;;;;;;;5087388;28;20383;-72
2022/08/07 02:05:50;;;;;;;10.60;6.82;;;;;;;;;;5080525;28;20397;-72
2022/08/07 02:08:23;;;;;;;12.50;7.07;;;;;;;;;;5095787;28;20480;-72
2022/08/07 02:10:52;;;;;;;11.13;7.38;;;;;;;;;;5081640;28;20047;-72
2022/08/07 02:13:20;;;;;;;10.15;7.25;;;;;;;;;;5093817;28;20392;-72
2022/08/07 02:15:47;;;;;;;11.13;7.25;;;;;;;;;;5102392;28;20040;-73
2022/08/07 02:18:14;;;;;;;11.43;7.22;;;;;;;;;;5090849;28;20040;-72
2022/08/07 02:20:42;;;;;;;13.57;7.63;;;;;;;;;;5101944;28;20036;-72
2022/08/07 02:23:08;;;;;;;10.93;6.72;;;;;;;;;;5075394;28;20040;-72
2022/08/07 02:25:35;;;;;;;10.45;7.05;;;;;;;;;;5088680;28;20039;-72
2022/08/07 02:28:02;;;;;;;12.05;6.97;;;;;;;;;;5078430;28;20068;-72
2022/08/07 02:30:28;;;;;;;11.95;7.95;;;;;;;;;;5096116;28;20397;-72
2022/08/07 02:32:56;;;;;;;10.73;7.50;;;;;;;;;;5099126;28;20100;-72
2022/08/07 02:35:22;;;;;;;11.95;7.75;;;;;;;;;;5074672;28;20063;-72
2022/08/07 02:37:49;;;;;;;13.18;7.38;;;;;;;;;;5083649;28;20042;-72
2022/08/07 02:40:15;;;;;;;8.77;6.55;;;;;;;;;;5047420;28;20062;-72
2022/08/07 02:42:42;;;;;;;10.65;6.00;;;;;;;;;;5055073;28;20040;-72
2022/08/07 02:45:10;;;;;;;9.30;6.45;;;;;;;;;;5059750;28;20381;-72
2022/08/07 02:47:36;;;;;;;10.48;7.13;;;;;;;;;;5087775;28;20035;-71
2022/08/07 02:50:02;;;;;;;10.52;6.38;;;;;;;;;;5079780;28;20084;-71
2022/08/07 02:52:34;;;;;;;11.48;6.38;;;;;;;;;;5067646;28;20048;-71
2022/08/07 02:55:02;;;;;;;7.63;5.00;;;;;;;;;;5081577;28;20130;-71
2022/08/07 02:57:28;;;;;;;9.40;5.88;;;;;;;;;;5092375;28;20093;-71
2022/08/07 02:59:55;;;;;;;10.25;6.20;;;;;;;;;;5094498;28;20683;-72
2022/08/07 03:02:21;;;;;;;9.18;6.30;;;;;;;;;;5083167;28;20429;-71
2022/08/07 03:04:47;;;;;;;10.70;6.57;;;;;;;;;;5092845;28;20040;-71
2022/08/07 03:07:14;;;;;;;9.55;6.47;;;;;;;;;;5075216;28;20044;-72
2022/08/07 03:09:41;;;;;;;11.65;7.10;;;;;;;;;;5093247;28;20040;-72
2022/08/07 03:12:08;;;;;;;10.38;6.88;;;;;;;;;;5075028;28;20046;-72
2022/08/07 03:14:35;;;;;;;11.20;7.07;;;;;;;;;;5075162;28;20484;-72
2022/08/07 03:17:02;;;;;;;10.35;6.30;;;;;;;;;;5092945;28;20058;-72
2022/08/07 03:19:28;;;;;;;11.85;6.95;;;;;;;;;;5093442;28;20044;-72
2022/08/07 03:21:55;;;;;;;10.25;7.05;;;;;;;;;;5074167;28;20055;-72
2022/08/07 03:24:21;;;;;;;9.65;6.70;;;;;;;;;;5058008;28;20097;-72
2022/08/07 03:26:50;;;;;;;10.05;6.80;;;;;;;;;;5092702;28;20046;-72
2022/08/07 03:29:17;;;;;;;10.02;6.63;;;;;;;;;;5087206;28;20091;-72
2022/08/07 03:31:44;;;;;;;8.63;5.55;;;;;;;;;;5092565;28;20044;-72
2022/08/07 03:34:12;;;;;;;10.07;6.00;;;;;;;;;;5058011;28;20048;-72
2022/08/07 03:36:39;;;;;;;10.18;6.07;;;;;;;;;;5074787;28;20103;-72
2022/08/07 03:39:07;;;;;;;10.45;6.10;;;;;;;;;;5074134;28;20047;-72
2022/08/07 03:41:34;;;;;;;12.10;6.25;;;;;;;;;;5058005;28;20036;-72
2022/08/07 03:44:00;;;;;;;9.68;6.40;;;;;;;;;;5074278;28;20044;-72
2022/08/07 03:46:27;;;;;;;10.55;6.57;;;;;;;;;;5074331;28;20044;-72
2022/08/07 03:48:53;;;;;;;10.00;6.25;;;;;;;;;;5092316;28;20393;-72
2022/08/07 03:51:20;;;;;;;12.60;6.57;;;;;;;;;;5092769;28;20488;-71
2022/08/07 03:53:47;;;;;;;10.27;6.82;;;;;;;;;;5092398;28;20384;-72
2022/08/07 03:56:15;;;;;;;12.00;6.57;;;;;;;;;;5074560;28;20395;-71
2022/08/07 03:58:41;;;;;;;9.82;6.18;;;;;;;;;;5074347;28;20097;-71
2022/08/07 04:01:09;;;;;;;11.05;6.05;;;;;;;;;;5061595;28;20036;-71
2022/08/07 04:03:35;;;;;;;8.60;5.80;;;;;;;;;;5087387;28;20039;-71
2022/08/07 04:06:01;;;;;;;10.60;6.38;;;;;;;;;;5092796;28;20435;-71
2022/08/07 04:08:28;;;;;;;9.93;6.55;;;;;;;;;;5061980;28;20063;-72
2022/08/07 04:10:54;;;;;;;8.65;6.05;;;;;;;;;;5079044;28;20067;-72
2022/08/07 04:13:21;;;;;;;10.00;5.68;;;;;;;;;;5083212;28;20482;-72
2022/08/07 04:15:47;;;;;;;9.85;5.95;;;;;;;;;;5101147;28;20155;-72
2022/08/07 04:18:14;;;;;;;11.27;5.22;;;;;;;;;;5093756;28;20036;-72
2022/08/07 04:20:41;;;;;;;14.60;6.00;;;;;;;;;;5082819;28;20052;-72
2022/08/07 04:23:07;;;;;;;10.20;6.50;;;;;;;;;;5092091;28;20136;-72
2022/08/07 04:25:36;;;;;;;8.57;5.90;;;;;;;;;;5086920;28;20071;-72
2022/08/07 04:28:03;;;;;;;9.13;5.10;;;;;;;;;;5093426;28;20048;-72
2022/08/07 04:30:29;;;;;;;5.10;2.80;;;;;;;;;;5077003;28;20101;-72
2022/08/07 04:32:55;;;;;;;7.05;4.90;;;;;;;;;;5080190;28;20081;-72
2022/08/07 04:35:21;;;;;;;8.20;5.38;;;;;;;;;;5091093;28;20049;-72
2022/08/07 04:37:48;;;;;;;7.93;5.50;;;;;;;;;;5082788;28;20035;-71
2022/08/07 04:40:14;;;;;;;9.55;6.00;;;;;;;;;;5090044;28;20044;-72
2022/08/07 04:42:40;;;;;;;8.52;5.97;;;;;;;;;;5082074;28;20066;-71
2022/08/07 04:45:07;;;;;;;8.43;5.63;;;;;;;;;;5075512;28;20049;-72
2022/08/07 04:47:43;;;;;;;8.48;5.25;;;;;;;;;;5053731;28;20033;-72
2022/08/07 04:50:09;;;;;;;;;;;;;;;;;;5088534;28;20040;-73
2022/08/07 04:52:50;;;;;;;5.93;4.32;;;;;;;;;;5094873;28;20053;-73
2022/08/07 04:55:23;;;;;;;5.93;4.35;;;;;;;;;;5095805;28;20032;-72
2022/08/07 04:57:52;;;;;;;5.57;4.05;;;;;;;;;;5091015;28;20126;-72
2022/08/07 05:00:20;;;;;;;6.57;4.32;;;;;;;;;;5073186;28;20389;-72
2022/08/07 05:02:58;;;;;;;5.53;4.05;;;;;;;;;;5070489;28;20043;-73
2022/08/07 05:05:33;;;;;;;6.55;4.03;;;;;;;;;;5064078;28;20040;-72
2022/08/07 05:08:05;;;;;;;5.85;3.88;;;;;;;;;;5095614;28;20388;-72
2022/08/07 05:10:48;;;;;;;5.10;3.67;;;;;;;;;;5064135;28;20032;-73
2022/08/07 05:13:20;;;;;;;5.55;3.90;;;;;;;;;;5077175;28;20497;-72
2022/08/07 05:15:49;;;;;;;6.13;3.97;;;;;;;;;;5077334;28;20093;-73
2022/08/07 05:18:32;;;;;;;7.40;4.13;;;;;;;;;;5076863;28;20040;-73
2022/08/07 05:20:59;;;;;;;7.05;3.90;;;;;;;;;;5060221;28;20040;-73
2022/08/07 05:23:29;;;;;;;6.50;3.72;;;;;;;;;;5077056;28;20044;-74
2022/08/07 05:25:56;;;;;;;6.32;3.90;;;;;;;;;;5095147;28;20040;-73
2022/08/07 05:28:22;;;;;;;7.30;3.80;;;;;;;;;;5089763;28;20369;-73
2022/08/07 05:30:49;;;;;;;5.20;3.88;;;;;;;;;;5076841;28;20078;-73
2022/08/07 05:33:16;;;;;;;5.00;3.85;;;;;;;;;;5076653;28;20044;-74
2022/08/07 05:35:43;;;;;;;5.13;3.85;;;;;;;;;;5095322;28;20392;-74
2022/08/07 05:38:10;;;;;;;8.02;4.45;;;;;;;;;;5060173;28;20051;-74
2022/08/07 05:40:37;;;;;;;5.80;4.20;;;;;;;;;;5076755;28;20059;-73
2022/08/07 05:43:03;;;;;;;5.05;3.72;;;;;;;;;;5076467;28;20081;-74
2022/08/07 05:45:30;;;;;;;5.80;3.80;;;;;;;;;;5076830;28;20127;-74
2022/08/07 05:47:56;;;;;;;5.25;4.05;;;;;;;;;;5076783;28;20068;-74
2022/08/07 05:50:22;;;;;;;7.72;4.38;;;;;;;;;;5076345;28;20040;-74
2022/08/07 05:52:48;;;;;;;5.28;4.40;;;;;;;;;;5094605;28;20035;-74
2022/08/07 05:55:15;;;;;;;5.65;4.25;;;;;;;;;;5059757;28;20050;-74
2022/08/07 05:57:42;;;;;;;6.72;3.95;;;;;;;;;;5076555;28;20048;-75
2022/08/07 06:00:08;;;;;;;6.13;4.65;;;;;;;;;;5088866;28;20481;-75
2022/08/07 06:02:35;;;;;;;6.57;4.10;;;;;;;;;;5067757;28;20039;-75
2022/08/07 06:05:20;;;;;;;6.82;4.40;;;;;;;;;;5076118;28;20040;-75
2022/08/07 06:07:47;;;;;;;6.93;4.63;;;;;;;;;;5075494;28;20047;-74
2022/08/07 06:10:13;;;;;;;7.40;4.90;;;;;;;;;;5075888;28;20104;-75
2022/08/07 06:12:39;;;;;;;6.55;4.88;;;;;;;;;;5076441;28;20047;-75
2022/08/07 06:15:08;;;;;;;8.18;5.97;;;;;;;;;;5075733;28;20044;-75
2022/08/07 06:17:34;;;;;;;8.27;5.97;;;;;;;;;;5076205;28;20040;-75
2022/08/07 06:20:01;;;;;;;7.78;5.85;;;;;;;;;;5094211;28;20518;-75
2022/08/07 06:22:28;;;;;;;8.05;6.47;;;;;;;;;;5094027;28;20046;-75
2022/08/07 06:24:57;;;;;;;7.78;6.30;;;;;;;;;;5076241;28;20549;-75
2022/08/07 06:27:24;;;;;;;7.82;6.00;;;;;;;;;;5079837;28;20035;-75
2022/08/07 06:29:50;;;;;;;6.43;5.75;;;;;;;;;;5084140;28;20067;-75
2022/08/07 06:32:16;;;;;;;10.57;6.07;;;;;;;;;;5058005;28;20036;-75
2022/08/07 06:34:42;;;;;;;8.30;5.72;;;;;;;;;;5093486;28;20111;-75
2022/08/07 06:37:08;;;;;;;8.85;5.70;;;;;;;;;;5075342;28;20511;-75
2022/08/07 06:39:35;;;;;;;8.77;6.30;;;;;;;;;;5075806;28;20044;-75
2022/08/07 06:42:06;;;;;;;8.68;5.65;;;;;;;;;;5075813;28;20549;-75
2022/08/07 06:44:33;;;;;;;6.47;4.93;;;;;;;;;;5075691;28;20035;-75
2022/08/07 06:46:59;;;;;;;7.90;4.97;;;;;;;;;;5075850;28;20051;-75
2022/08/07 06:49:25;;;;;;;6.60;4.95;;;;;;;;;;5075208;28;20043;-74
2022/08/07 06:51:52;;;;;;;4.80;3.78;;;;;;;;;;5058947;28;20036;-73
2022/08/07 06:54:19;;;;;;;5.30;4.00;;;;;;;;;;5075352;28;20368;-74
2022/08/07 06:56:46;;;;;;;6.15;4.72;;;;;;;;;;5093634;28;20036;-73
2022/08/07 06:59:15;;;;;;;4.78;3.83;;;;;;;;;;5074851;28;20044;-74
2022/08/07 07:01:42;;;;;;;7.35;3.35;;;;;;;;;;5058835;28;20046;-74
2022/08/07 07:04:08;;;;;;;6.28;4.70;;;;;;;;;;5074956;28;20051;-73
2022/08/07 07:06:35;;;;;;;5.05;3.78;;;;;;;;;;5075135;28;20050;-74
2022/08/07 07:09:22;;;;;;;5.22;3.40;;;;;;;;;;5075232;28;20048;-74
2022/08/07 07:12:08;;;;;;;3.80;2.58;;;;;;;;;;5075506;28;20521;-75
2022/08/07 07:14:37;;;;;;;4.65;2.47;;;;;;;;;;5074841;28;20480;-75
2022/08/07 07:17:08;;;;;;;3.35;2.42;;;;;;;;;;5075253;28;20077;-75
2022/08/07 07:19:37;;;;;;;2.72;1.73;;;;;;;;;;5074413;28;20120;-75
2022/08/07 07:22:03;;;;;;;3.38;1.95;;;;;;;;;;5075365;28;20101;-75
2022/08/07 07:24:30;;;;;;;3.78;2.40;;;;;;;;;;5074661;28;20093;-74
2022/08/07 07:26:56;;;;;;;3.85;2.25;;;;;;;;;;5074986;28;20129;-75
2022/08/07 07:29:25;;;;;;;3.85;2.70;;;;;;;;;;5069462;28;20051;-76
2022/08/07 07:31:54;;;;;;;4.60;2.50;;;;;;;;;;5074630;28;20044;-76
2022/08/07 07:34:25;;;;;;;3.65;2.55;;;;;;;;;;5074579;28;20655;-75
2022/08/07 07:36:52;;;;;;;9.35;3.58;;;;;;;;;;5074883;28;20126;-76
2022/08/07 07:39:19;;;;;;;4.32;3.20;;;;;;;;;;5074113;28;20044;-75
2022/08/07 07:41:47;;;;;;;4.25;3.05;;;;;;;;;;5074679;28;20047;-75
2022/08/07 07:44:15;;;;;;;5.40;2.50;;;;;;;;;;5074458;28;20035;-76
2022/08/07 07:46:42;;;;;;;3.75;2.20;;;;;;;;;;5074553;28;20408;-76
2022/08/07 07:49:09;;;;;;;6.20;2.40;;;;;;;;;;5074452;28;20040;-76
2022/08/07 07:51:36;;;;;;;4.38;2.10;;;;;;;;;;5074105;28;20062;-74
2022/08/07 07:54:03;;;;;;;5.22;2.20;;;;;;;;;;5057895;28;20067;-75
2022/08/07 07:56:30;;;;;;;3.58;2.33;;;;;;;;;;5074097;28;20043;-75
2022/08/07 07:58:58;;;;;;;3.95;2.47;;;;;;;;;;5057815;28;20050;-75
2022/08/07 08:01:24;;;;;;;3.67;2.47;;;;;;;;;;5059753;28;20051;-75
2022/08/07 08:03:52;;;;;;;3.72;2.53;;;;;;;;;;5074496;28;20518;-75
2022/08/07 08:06:18;;;;;;;4.72;2.70;;;;;;;;;;5073778;28;20123;-75
2022/08/07 08:08:45;;;;;;;3.45;2.50;;;;;;;;;;5074532;28;20042;-76
2022/08/07 08:11:12;;;;;;;4.68;2.78;;;;;;;;;;5057826;28;20039;-75
2022/08/07 08:13:41;;;;;;;3.38;2.45;;;;;;;;;;5073681;28;20092;-75
2022/08/07 08:16:08;;;;;;;4.20;2.30;;;;;;;;;;5074239;28;20047;-75
2022/08/07 08:18:34;;;;;;;3.55;2.60;;;;;;;;;;5057286;28;20047;-76
2022/08/07 08:21:01;;;;;;;7.13;2.90;;;;;;;;;;5074557;28;20540;-75
2022/08/07 08:29:03;;;;;;;4.18;2.60;;;;;;;;;;5086231;28;20060;-75
2022/08/07 08:31:32;;;;;;;5.57;2.53;;;;;;;;;;5077169;28;20044;-75
2022/08/07 08:34:00;;;;;;;2.60;2.10;;;;;;;;;;5078174;28;20035;-75
2022/08/07 08:36:28;;;;;;;3.78;2.30;;;;;;;;;;5077942;28;20044;-75
2022/08/07 08:38:55;;;;;;;4.65;2.20;;;;;;;;;;5077985;28;20047;-74
2022/08/07 08:41:26;;;;;;;4.47;2.70;;;;;;;;;;5077883;28;20039;-75
2022/08/07 08:44:12;;;;;;;3.47;2.65;;;;;;;;;;5077645;28;20043;-76
2022/08/07 08:46:50;;;;;;;4.13;2.58;;;;;;;;;;5060875;28;20040;-76
2022/08/07 08:49:23;;;;;;;4.13;2.50;;;;;;;;;;5061401;28;20523;-76
2022/08/07 08:52:08;;;;;;;3.60;2.40;;;;;;;;;;5077821;28;20032;-71
2022/08/07 08:54:34;;;;;;;;;;;;;;;;;;5061212;28;20563;-74
2022/08/07 08:57:03;;;;;;;4.32;2.20;;;;;;;;;;5078021;28;20007;-75
2022/08/07 08:59:35;;;;;;;3.03;2.10;;;;;;;;;;5060484;28;20046;-75
2022/08/07 09:02:13;;;;;;;3.58;2.25;;;;;;;;;;5061358;28;20052;-75
2022/08/07 09:04:39;;;;;;;3.83;2.38;;;;;;;;;;5071333;28;20044;-74
2022/08/07 09:07:13;;;;;;;5.10;2.20;;;;;;;;;;5060929;28;20050;-75
2022/08/07 09:10:00;;;;;;;3.65;2.10;;;;;;;;;;5077195;28;20044;-74
2022/08/07 09:12:45;;;;;;;3.70;2.00;;;;;;;;;;5065814;28;20044;-74
2022/08/07 09:15:11;;;;;;;;;;;;;;;;;;5060966;28;20555;-74
2022/08/07 09:17:46;;;;;;;3.20;1.98;;;;;;;;;;5060370;28;19922;-74
2022/08/07 09:20:30;;;;;;;3.90;1.92;;;;;;;;;;5077464;28;20043;-74
2022/08/07 09:23:15;;;;;;;3.97;2.20;;;;;;;;;;5077491;28;20050;-74
2022/08/07 09:25:41;;;;;;;;;;;;;;;;;;5076907;28;20131;-75
2022/08/07 09:28:10;;;;;;;3.78;1.90;;;;;;;;;;5087353;28;20012;-74
2022/08/07 09:31:08;;;;;;;3.65;1.80;;;;;;;;;;5078208;28;20063;-74
2022/08/07 09:33:47;;;;;;;3.88;2.00;;;;;;;;;;5024569;28;20044;-73
2022/08/07 09:36:16;;;;;;;4.55;2.40;;;;;;;;;;5095279;28;20040;-74
2022/08/07 09:38:46;;;;;;;3.17;1.88;;;;;;;;;;5095996;28;20119;-75
2022/08/07 09:41:21;;;;;;;4.38;2.22;;;;;;;;;;5089901;28;20046;-75
2022/08/07 09:44:06;;;;;;;4.03;1.73;;;;;;;;;;5094947;28;20036;-75
2022/08/07 09:46:36;;;;;;;3.45;2.00;;;;;;;;;;5094581;28;20147;-74
2022/08/07 09:49:20;;;;;;;3.22;2.15;;;;;;;;;;5076830;28;20079;-75
2022/08/07 09:51:58;;;;;;;3.42;1.98;;;;;;;;;;5076522;28;20064;-75
2022/08/07 09:54:48;;;;;;;4.15;2.10;;;;;;;;;;5080547;28;20032;-75
2022/08/07 09:57:17;;;;;;;3.55;2.05;;;;;;;;;;5076655;28;20047;-77
2022/08/07 10:00:02;;;;;;;2.85;1.80;;;;;;;;;;5095056;28;20031;-75
2022/08/07 10:02:47;;;;;;;4.82;2.05;;;;;;;;;;5070934;28;20046;-74
2022/08/07 10:05:25;;;;;;;3.55;1.67;;;;;;;;;;5091185;28;20105;-75
2022/08/07 10:07:54;;;;;;;3.63;1.90;;;;;;;;;;5076538;28;20426;-72
2022/08/07 10:10:20;;;;;;;3.80;2.08;;;;;;;;;;5076173;28;20036;-74
2022/08/07 10:12:47;;;;;;;4.10;1.90;;;;;;;;;;5060589;28;20493;-78
2022/08/07 10:15:13;;;;;;;3.80;1.90;;;;;;;;;;5076092;28;20040;-76
2022/08/07 10:17:48;;;;;;;4.80;1.73;;;;;;;;;;5068943;28;20078;-74
2022/08/07 10:20:14;;;;;;;2.75;1.90;;;;;;;;;;5079790;28;21300;-73
2022/08/07 10:22:48;;;;;;;4.05;2.03;;;;;;;;;;5076258;28;20553;-73
2022/08/07 10:25:19;;;;;;;28.83;7.88;;;;;;;;;;5075976;28;20047;-74
2022/08/07 10:27:45;;;;;;;6.95;2.60;;;;;;;;;;5061184;28;20032;-75
2022/08/07 10:30:18;;;;;;;5.32;1.98;;;;;;;;;;5087419;28;20129;-73
2022/08/07 10:32:45;;;;;;;3.20;1.98;;;;;;;;;;5080163;28;20040;-76
2022/08/07 10:35:29;;;;;;;3.72;1.90;;;;;;;;;;5094061;28;20047;-78
2022/08/07 10:38:01;;;;;;;2.10;1.60;;;;;;;;;;5063978;28;20043;-75
2022/08/07 10:40:28;;;;;;;4.93;1.90;;;;;;;;;;5058993;28;20040;-75
2022/08/07 10:43:15;;;;;;;4.05;2.20;;;;;;;;;;5075695;28;20396;-74
2022/08/07 10:45:47;;;;;;;4.13;2.22;;;;;;;;;;5074992;28;20048;-74
2022/08/07 10:48:19;;;;;;;4.82;2.40;;;;;;;;;;5059140;28;20032;-75
2022/08/07 10:50:51;;;;;;;4.13;2.33;;;;;;;;;;5075197;28;20036;-75
2022/08/07 10:53:23;;;;;;;4.00;2.10;;;;;;;;;;5074918;28;20040;-75
2022/08/07 10:55:53;;;;;;;3.30;2.03;;;;;;;;;;5074880;28;20122;-75
2022/08/07 10:58:38;;;;;;;4.47;1.95;;;;;;;;;;5075442;28;20044;-74
2022/08/07 11:01:22;;;;;;;3.95;2.20;;;;;;;;;;5062391;28;20389;-75
2022/08/07 11:03:51;;;;;;;4.15;2.67;;;;;;;;;;5045882;28;20043;-74
2022/08/07 11:06:44;;;;;;;3.65;2.08;;;;;;;;;;5075250;28;20502;-75
2022/08/07 11:09:24;;;;;;;3.97;2.10;;;;;;;;;;5075428;28;20035;-74
2022/08/07 11:11:56;;;;;;;3.50;2.05;;;;;;;;;;5058280;28;20039;-74
2022/08/07 11:14:25;;;;;;;3.05;2.00;;;;;;;;;;5075295;28;20036;-74
2022/08/07 11:17:10;;;;;;;4.97;2.08;;;;;;;;;;5074762;28;20097;-75
2022/08/07 11:19:39;;;;;;;3.97;2.50;;;;;;;;;;5075211;28;20123;-75
2022/08/07 11:22:08;;;;;;;4.97;2.30;;;;;;;;;;5074749;28;20044;-75
2022/08/07 11:24:50;;;;;;;4.43;1.92;;;;;;;;;;5075095;28;20123;-74
2022/08/07 11:27:22;;;;;;;4.95;2.20;;;;;;;;;;5077598;28;20043;-74
2022/08/07 11:30:00;;;;;;;4.50;2.20;;;;;;;;;;5082849;28;20112;-74
2022/08/07 11:32:50;;;;;;;4.88;2.22;;;;;;;;;;5058343;28;20244;-75
2022/08/07 11:35:21;;;;;;;3.33;2.30;;;;;;;;;;5018801;28;20137;-75
2022/08/07 11:37:47;;;;;;;4.00;2.20;;;;;;;;;;5074377;28;20036;-75
2022/08/07 11:40:24;;;;;;;3.42;2.33;;;;;;;;;;5058366;28;20382;-74
2022/08/07 11:42:59;;;;;;;5.00;2.30;;;;;;;;;;5074296;28;20046;-73
2022/08/07 11:45:29;;;;;;;4.93;2.30;;;;;;;;;;5058040;28;20117;-74
2022/08/07 11:47:56;;;;;;;3.40;2.35;;;;;;;;;;5074029;28;20040;-74
2022/08/07 11:50:27;;;;;;;5.90;2.17;;;;;;;;;;5074651;28;20047;-74
2022/08/07 11:53:14;;;;;;;3.58;1.77;;;;;;;;;;5074119;28;20043;-74
2022/08/07 11:55:52;;;;;;;5.20;2.05;;;;;;;;;;5057977;28;20136;-74
2022/08/07 11:58:21;;;;;;;4.70;2.33;;;;;;;;;;5074338;28;20086;-74
2022/08/07 12:00:56;;;;;;;3.20;2.00;;;;;;;;;;5057704;28;20055;-75
2022/08/07 12:03:41;;;;;;;4.07;2.20;;;;;;;;;;5074327;28;20373;-75
2022/08/07 12:06:30;;;;;;;5.63;2.45;;;;;;;;;;5073054;28;20051;-75
2022/08/07 12:09:01;;;;;;;11.48;3.67;;;;;;;;;;5044657;28;20032;-75
2022/08/07 12:11:42;;;;;;;6.15;2.60;;;;;;;;;;5074269;28;20036;-75
2022/08/07 12:14:15;;;;;;;4.63;2.40;;;;;;;;;;5074125;28;20040;-74
2022/08/07 12:16:48;;;;;;;3.15;2.30;;;;;;;;;;5073992;28;20051;-74
2022/08/07 12:19:32;;;;;;;3.30;2.00;;;;;;;;;;5073998;28;20044;-75
2022/08/07 12:22:02;;;;;;;4.82;2.50;;;;;;;;;;5057330;28;20539;-75
2022/08/07 12:24:39;;;;;;;3.05;1.98;;;;;;;;;;5092457;28;20056;-75
2022/08/07 12:27:10;;;;;;;5.82;2.38;;;;;;;;;;5075061;28;20040;-75
2022/08/07 12:29:48;;;;;;;2.88;2.00;;;;;;;;;;5084380;28;20489;-74
2022/08/07 12:32:29;;;;;;;3.47;2.00;;;;;;;;;;5057176;28;20628;-74
2022/08/07 12:34:56;;;;;;;3.67;1.90;;;;;;;;;;5073949;28;20485;-74
2022/08/07 12:37:23;;;;;;;3.47;1.80;;;;;;;;;;5057119;28;20036;-75
2022/08/07 12:39:50;;;;;;;3.88;2.13;;;;;;;;;;5074107;28;20047;-74
2022/08/07 12:42:19;;;;;;;4.25;2.15;;;;;;;;;;5073729;28;20374;-75
2022/08/07 12:44:47;;;;;;;3.67;2.05;;;;;;;;;;5073962;28;20124;-75
2022/08/07 12:47:22;;;;;;;3.47;1.92;;;;;;;;;;5091453;28;20040;-75
2022/08/07 12:49:48;;;;;;;5.43;2.10;;;;;;;;;;5073757;28;20043;-74
2022/08/07 12:52:16;;;;;;;4.80;2.33;;;;;;;;;;5073476;28;20558;-74
2022/08/07 12:54:56;;;;;;;3.13;2.00;;;;;;;;;;5057500;28;20357;-75
2022/08/07 12:57:26;;;;;;;5.25;2.05;;;;;;;;;;5073947;28;20408;-75
2022/08/07 12:59:53;;;;;;;3.67;2.05;;;;;;;;;;5053906;28;20041;-75
2022/08/07 13:02:23;;;;;;;3.40;2.00;;;;;;;;;;5046210;28;20043;-75
2022/08/07 13:05:08;;;;;;;2.75;1.83;;;;;;;;;;5056681;28;20071;-75
2022/08/07 13:07:34;;;;;;;3.90;1.70;;;;;;;;;;5073619;28;20052;-74
2022/08/07 13:10:03;;;;;;;5.15;1.83;;;;;;;;;;5091272;28;20052;-74
2022/08/07 13:12:40;;;;;;;2.25;1.35;;;;;;;;;;5074068;28;20395;-73
2022/08/07 13:15:16;;;;;;;2.95;1.67;;;;;;;;;;5073194;28;20044;-73
2022/08/07 13:17:50;;;;;;;2.38;1.13;;;;;;;;;;5076918;28;20040;-72
2022/08/07 13:20:23;;;;;;;2.57;1.10;;;;;;;;;;5076928;28;20042;-73
2022/08/07 13:23:08;;;;;;;3.22;1.58;;;;;;;;;;5077703;28;20125;-73
2022/08/07 13:25:58;;;;;;;4.30;1.40;;;;;;;;;;5077574;28;20400;-71
2022/08/07 13:28:35;;;;;;;3.13;1.60;;;;;;;;;;5077110;28;20070;-74
2022/08/07 13:31:04;;;;;;;8.70;1.60;;;;;;;;;;5076673;28;20063;-75
2022/08/07 13:33:36;;;;;;;4.10;1.30;;;;;;;;;;5077481;28;20374;-72
2022/08/07 13:36:09;;;;;;;2.30;1.52;;;;;;;;;;5095146;28;20039;-74
2022/08/07 13:38:58;;;;;;;2.22;1.33;;;;;;;;;;5077689;28;20519;-74
2022/08/07 13:41:44;;;;;;;3.08;1.48;;;;;;;;;;5065811;28;20040;-73
2022/08/07 13:44:11;;;;;;;3.30;1.45;;;;;;;;;;5076511;28;20048;-74
2022/08/07 13:46:39;;;;;;;4.20;1.50;;;;;;;;;;5060533;28;20151;-74
2022/08/07 13:49:06;;;;;;;3.08;1.33;;;;;;;;;;5076469;28;20040;-72
2022/08/07 13:51:34;;;;;;;3.88;1.30;;;;;;;;;;5076828;28;20047;-73
2022/08/07 13:54:05;;;;;;;2.72;1.10;;;;;;;;;;5076954;28;20243;-73
2022/08/07 13:56:33;;;;;;;3.65;1.33;;;;;;;;;;5076804;28;20048;-73
2022/08/07 13:58:59;;;;;;;3.15;1.48;;;;;;;;;;5076598;28;20112;-74
2022/08/07 14:01:33;;;;;;;5.00;1.20;;;;;;;;;;5061413;28;20101;-74
2022/08/07 14:04:10;;;;;;;2.20;1.00;;;;;;;;;;5106007;28;20040;-72
2022/08/07 14:06:40;;;;;;;1.55;0.90;;;;;;;;;;5094479;28;20550;-74
2022/08/07 14:09:38;;;;;;;1.88;0.90;;;;;;;;;;5059633;28;20449;-75
2022/08/07 14:12:06;;;;;;;2.30;0.90;;;;;;;;;;5046641;28;20052;-74
2022/08/07 14:14:43;;;;;;;2.22;1.00;;;;;;;;;;5076641;28;20401;-73
2022/08/07 14:17:11;;;;;;;2.53;0.98;;;;;;;;;;5075840;28;20097;-74
2022/08/07 14:19:52;;;;;;;4.18;1.00;;;;;;;;;;5076769;28;20048;-75
2022/08/07 14:22:24;;;;;;;4.50;1.13;;;;;;;;;;5075946;28;20043;-71
2022/08/07 14:24:51;;;;;;;2.00;1.10;;;;;;;;;;5094377;28;20040;-72
2022/08/07 14:27:21;;;;;;;3.42;1.13;;;;;;;;;;5062016;28;20035;-74
2022/08/07 14:29:48;;;;;;;3.40;1.20;;;;;;;;;;5084267;28;20047;-72
2022/08/07 14:32:15;;;;;;;2.55;1.20;;;;;;;;;;5093807;28;20032;-73
2022/08/07 14:34:43;;;;;;;3.53;1.23;;;;;;;;;;5075914;28;20036;-75
2022/08/07 14:37:10;;;;;;;3.13;1.20;;;;;;;;;;5058600;28;20097;-75
2022/08/07 14:39:39;;;;;;;3.38;1.48;;;;;;;;;;5042550;28;20058;-75
2022/08/07 14:42:07;;;;;;;3.58;1.40;;;;;;;;;;5058978;28;20043;-75
2022/08/07 14:44:34;;;;;;;3.47;1.40;;;;;;;;;;5075478;28;20066;-75
2022/08/07 14:47:01;;;;;;;3.25;1.60;;;;;;;;;;5042601;28;20054;-75
2022/08/07 14:49:29;;;;;;;4.30;1.50;;;;;;;;;;5075090;28;20035;-73
2022/08/07 14:51:59;;;;;;;4.53;1.65;;;;;;;;;;5075512;28;20116;-75
2022/08/07 14:54:29;;;;;;;6.47;1.67;;;;;;;;;;5075196;28;20121;-72
2022/08/07 14:56:56;;;;;;;3.85;1.60;;;;;;;;;;5075851;28;20173;-75
2022/08/07 14:59:23;;;;;;;6.20;2.05;;;;;;;;;;5074912;28;20094;-75
2022/08/07 15:01:49;;;;;;;3.30;1.80;;;;;;;;;;5061817;28;20473;-75
2022/08/07 15:04:15;;;;;;;3.28;1.40;;;;;;;;;;5058467;28;20125;-75